Amherst, Maine
Current Conditions -  °F | °C
As of 12:55 PM on Tuesday 21 Oct 2014 (Local Time) from KBHB Reporting Station
Scattered Clouds Scattered Clouds  
Wind Chill: 54°   Ceiling: Unl
Heat Index: 54°   Visibility: 10mi
Dew Point: 46°   Wind: 5mph
Humidity: 77%   Direction: 60°ENE
Pressure: 30.08"   Gusts: NA
Location:  44.6651°N, 68.3944°W
Report Text: KBHB 211655Z AUTO 06004KT 10SM SCT055 12/08 A3008 RMK AO1
Loading
Personal Weather Stations






























Interactive Weather Map New forecast layout! Learn more

10-Day Weather Forecast

Advertisements
Track Severe Weather on mobile